Escondido, CA (92029)

9:35 AM PDT on October 02, 2014 (GMT -0700)
KCAESCON21 | Change Station
CLOSE
Current Station
Personal Weather Station
Location: Escondido, CA
Elevation: 646 ft
Nearby Weather Stations
Active Advisory: Heat Advisory

Elev 646 ft 33.09 °N, 117.08 °W | Updated 13 seconds ago

Clear
Clear
84.7 °F
Feels Like 82 °F
N
7.0
Wind Variable Wind from East
Gusts 7.0 mph

Today
High -- | Low -- °F
--% Chance of Precip.
Yesterday
High -- | Low -- °F
Precip. -- in
6:43 AM 6:31 PM
First Quarter, 60% visible
Pressure 29.94 in
Visibility 10.0 miles
Clouds Clear
Heat Index 82 °F
Dew Point 43 °F
Humidity 23%
Rainfall 0.00 in
Snow Depth 0 in , 0 in , 1 in
UV 2 out of 12
Pollen 5.40 out of 12
Ozone Good
PM2.5 Good
Flu Activity Not available.
METAR KCRQ 021553Z 00000KT 10SM CLR 24/12 A2995 RMK AO2 SLP138 T02440117

More Conditions Fewer Conditions

Pressure 29.94 in
Visibility 10.0 miles
Clouds Clear
Heat Index 82 °F
Dew Point 43 °F
Humidity 23%
Rainfall 0.00 in
Snow Depth 0 in , 0 in , 1 in
UV 2 out of 12
Pollen 5.40 out of 12
Ozone Good
PM2.5 Good
Flu Activity Not available.
METAR KCRQ 021553Z 00000KT 10SM CLR 24/12 A2995 RMK AO2 SLP138 T02440117

More Conditions Fewer Conditions

10-Day Weather Forecast

Almanac

Astronomy

Oct. 02, 2014 Rise Set
Actual Time 6:43 AM PDT 6:31 PM PDT
Civil Twilight 6:18 AM PDT 6:56 PM PDT
Nautical Twilight 5:50 AM PDT 7:24 PM PDT
Astronomical Twilight 5:21 AM PDT 7:53 PM PDT
Moon 2:25 PM PDT 12:21 AM PDT
Length of Visible Light 12h 37m
Length of Day
11h 48m
Tomorrow will be 2m 1s shorter.
First Quarter, 60% of the Moon is Illuminated
Today
First Quarter
Oct 8
Full
Oct 15
Last Quarter
Oct 23
New
Oct 30
First Quarter

Today's Extremes

State Highs State Lows

Community

WunderPhotos

Upload Photos

1,758,294 photos uploaded!

WunderBlogs® & News

Nearby

Air Quality

  Air Quality AQ Index Pollutant
Yesterday Moderate
PM2.5
Yesterday Good
OZONE
Current Good
PM2.5
Current Good
OZONE
Thursday Moderate
OZONE
Thursday Good
PM2.5

Snow Depth

Station Depth Elevation
Heavenly Valley 0 in 8850 ft
Monitor Pass 0 in 8350 ft
Rubicon #2 1 in 7500 ft
Forestdale Creek 1 in 8029 ft
Hagan's Meadow 1 in 8000 ft

Earthquake Activity

City Distance Mag. Time & Date
Avalon, California 69 miles 3.2 10:12 PM PDT
2014-10-01
Avalon, California 69 miles 2.6 1:28 PM PDT
2014-09-30
Minimum magnitude displayed is 2.5.

Coastal Water Temperatures

Place Temperature
La Jolla, CA 71.1 °F
San Diego, CA 73.0 °F

Nearby Weather Stations